createdAt,value
2018-07-03T00:00:17.084Z,97177.20
2018-07-03T00:02:45.693Z,97178.98
2018-07-03T00:05:14.346Z,97183.02
2018-07-03T00:07:43.295Z,97188.87
2018-07-03T00:10:12.688Z,97185.64
2018-07-03T00:12:41.365Z,97179.58
2018-07-03T00:15:10.025Z,97178.07
2018-07-03T00:17:38.813Z,97172.02
2018-07-03T00:20:09.188Z,97161.27
2018-07-03T00:22:37.821Z,97174.25
2018-07-03T00:25:06.403Z,97167.59
2018-07-03T00:27:35.207Z,97168.98
2018-07-03T00:30:04.060Z,97174.72
2018-07-03T00:32:32.683Z,97174.88
2018-07-03T00:35:01.400Z,97179.91
2018-07-03T00:37:30.049Z,97174.52
2018-07-03T00:39:58.784Z,97171.72
2018-07-03T00:42:27.808Z,97169.27
2018-07-03T00:44:56.389Z,97172.17
2018-07-03T00:47:24.988Z,97173.23
2018-07-03T00:49:53.842Z,97170.80
2018-07-03T00:52:22.448Z,97174.44
2018-07-03T00:54:51.056Z,97173.94
2018-07-03T00:57:19.755Z,97173.16
2018-07-03T00:59:59.381Z,97171.41
2018-07-03T01:02:28.012Z,97170.70
2018-07-03T01:04:56.700Z,97164.73
2018-07-03T01:07:25.347Z,97169.77
2018-07-03T01:09:54.196Z,97172.23
2018-07-03T01:12:22.928Z,97162.52
2018-07-03T01:14:51.752Z,97160.08
2018-07-03T01:17:20.731Z,97161.13
2018-07-03T01:19:49.407Z,97159.72
2018-07-03T01:22:18.507Z,97162.88
2018-07-03T01:24:47.247Z,97168.03
2018-07-03T01:27:16.093Z,97165.55
2018-07-03T01:29:44.723Z,97164.14
2018-07-03T01:32:13.675Z,97165.91
2018-07-03T01:34:42.571Z,97169.47
2018-07-03T01:37:11.188Z,97169.47
2018-07-03T01:39:40.376Z,97178.23
2018-07-03T01:42:09.079Z,97181.25
2018-07-03T01:44:37.785Z,97183.59
2018-07-03T01:47:07.127Z,97184.41
2018-07-03T01:49:35.881Z,97186.98
2018-07-03T01:52:04.544Z,97193.61
2018-07-03T01:54:33.151Z,97186.70
2018-07-03T01:57:01.713Z,97189.77
2018-07-03T01:59:30.616Z,97190.31
2018-07-03T02:01:59.279Z,97181.68
2018-07-03T02:04:27.873Z,97175.12
2018-07-03T02:06:56.671Z,97183.41
2018-07-03T02:09:25.293Z,97187.03
2018-07-03T02:11:53.980Z,97195.40
2018-07-03T02:14:22.620Z,97187.23
2018-07-03T02:16:51.349Z,97189.78
2018-07-03T02:19:20.037Z,97190.48
2018-07-03T02:21:48.653Z,97193.27
2018-07-03T02:24:17.479Z,97194.17
2018-07-03T02:26:46.092Z,97195.31
2018-07-03T02:29:15.049Z,97193.11
2018-07-03T02:31:43.749Z,97200.72
2018-07-03T02:34:12.280Z,97192.04
2018-07-03T02:36:41.861Z,97197.38
2018-07-03T02:39:11.985Z,97194.75
2018-07-03T02:41:41.196Z,97198.21
2018-07-03T02:44:09.821Z,97193.97
2018-07-03T02:46:38.555Z,97194.31
2018-07-03T02:49:07.427Z,97195.80
2018-07-03T02:51:36.080Z,97196.87
2018-07-03T02:54:05.008Z,97197.12
2018-07-03T02:56:33.645Z,97198.83
2018-07-03T02:59:02.228Z,97197.79
2018-07-03T03:01:30.978Z,97201.83
2018-07-03T03:03:59.920Z,97200.66
2018-07-03T03:06:28.587Z,97202.70
2018-07-03T03:08:57.628Z,97199.44
2018-07-03T03:11:26.367Z,97191.06
2018-07-03T03:13:56.449Z,97201.97
2018-07-03T03:16:25.261Z,97201.27
2018-07-03T03:18:53.961Z,97207.41
2018-07-03T03:21:22.608Z,97217.75
2018-07-03T03:23:51.693Z,97217.96
2018-07-03T03:26:20.504Z,97218.63
2018-07-03T03:28:49.225Z,97220.07
2018-07-03T03:31:18.055Z,97228.21
2018-07-03T03:33:46.761Z,97222.30
2018-07-03T03:36:15.392Z,97221.55
2018-07-03T03:38:44.339Z,97218.00
2018-07-03T03:41:12.948Z,97221.14
2018-07-03T03:43:41.556Z,97218.83
2018-07-03T03:46:10.220Z,97221.48
2018-07-03T03:48:38.817Z,97222.05
2018-07-03T03:51:07.650Z,97223.78
2018-07-03T03:53:36.780Z,97223.91
2018-07-03T03:56:05.831Z,97223.47
2018-07-03T03:58:34.611Z,97220.69
2018-07-03T04:01:03.471Z,97213.91
2018-07-03T04:03:32.167Z,97224.16
2018-07-03T04:06:00.973Z,97224.23
2018-07-03T04:08:29.693Z,97220.48
2018-07-03T04:10:58.320Z,97221.14
2018-07-03T04:13:26.903Z,97226.15
2018-07-03T04:15:55.936Z,97224.38
2018-07-03T04:18:39.988Z,97219.28
2018-07-03T04:21:09.481Z,97222.33
2018-07-03T04:23:38.876Z,97219.25
2018-07-03T04:26:07.764Z,97216.12
2018-07-03T04:28:36.677Z,97223.41
2018-07-03T04:31:05.477Z,97220.96
2018-07-03T04:33:34.104Z,97227.22
2018-07-03T04:36:02.831Z,97225.58
2018-07-03T04:38:31.540Z,97212.66
2018-07-03T04:41:00.159Z,97228.06
2018-07-03T04:43:28.985Z,97226.44
2018-07-03T04:45:57.652Z,97230.05
2018-07-03T04:48:26.224Z,97227.63
2018-07-03T04:50:54.947Z,97226.37
2018-07-03T04:53:23.592Z,97223.04
2018-07-03T04:55:52.124Z,97219.66
2018-07-03T04:58:21.200Z,97225.59
2018-07-03T05:00:49.715Z,97230.74
2018-07-03T05:03:18.339Z,97232.92
2018-07-03T05:05:47.360Z,97234.30
2018-07-03T05:08:15.987Z,97235.16
2018-07-03T05:10:44.583Z,97233.78
2018-07-03T05:13:13.260Z,97239.53
2018-07-03T05:15:42.025Z,97225.98
2018-07-03T05:18:11.281Z,97234.17
2018-07-03T05:20:40.220Z,97235.84
2018-07-03T05:23:09.020Z,97234.18
2018-07-03T05:25:37.644Z,97230.55
2018-07-03T05:28:06.373Z,97229.27
2018-07-03T05:30:35.047Z,97237.31
2018-07-03T05:33:03.901Z,97241.09
2018-07-03T05:35:32.827Z,97242.46
2018-07-03T05:38:01.529Z,97240.25
2018-07-03T05:40:30.256Z,97242.59
2018-07-03T05:42:59.137Z,97246.70
2018-07-03T05:45:27.847Z,97238.37
2018-07-03T05:47:56.512Z,97242.98
2018-07-03T05:50:25.467Z,97243.66
2018-07-03T05:52:54.100Z,97251.80
2018-07-03T05:55:22.679Z,97252.61
2018-07-03T05:57:51.415Z,97251.63
2018-07-03T06:00:20.109Z,97261.58
2018-07-03T06:02:48.733Z,97264.81
2018-07-03T06:05:17.864Z,97263.58
2018-07-03T06:07:46.531Z,97270.79
2018-07-03T06:10:15.116Z,97271.69
2018-07-03T06:12:43.857Z,97271.92
2018-07-03T06:15:12.891Z,97275.73
2018-07-03T06:17:42.076Z,97275.20
2018-07-03T06:20:11.239Z,97275.34
2018-07-03T06:22:40.292Z,97276.92
2018-07-03T06:25:08.833Z,97284.69
2018-07-03T06:27:37.516Z,97281.88
2018-07-03T06:30:06.175Z,97281.08
2018-07-03T06:32:34.734Z,97279.78
2018-07-03T06:35:03.720Z,97279.57
2018-07-03T06:37:32.433Z,97280.05
2018-07-03T06:40:01.424Z,97282.97
2018-07-03T06:42:30.117Z,97281.19
2018-07-03T06:44:58.806Z,97273.52
2018-07-03T06:47:27.356Z,97275.72
2018-07-03T06:49:55.952Z,97282.42
2018-07-03T06:52:25.670Z,97278.80
2018-07-03T06:54:56.439Z,97279.10
2018-07-03T06:57:25.987Z,97279.95
2018-07-03T06:59:54.672Z,97282.49
2018-07-03T07:02:23.756Z,97276.83
2018-07-03T07:04:52.544Z,97272.16
2018-07-03T07:07:21.227Z,97276.37
2018-07-03T07:09:49.896Z,97273.47
2018-07-03T07:12:18.856Z,97272.17
2018-07-03T07:14:47.553Z,97269.21
2018-07-03T07:17:16.741Z,97280.53
2018-07-03T07:19:45.433Z,97278.89
2018-07-03T07:22:14.321Z,97276.92
2018-07-03T07:24:43.200Z,97277.47
2018-07-03T07:27:11.836Z,97279.89
2018-07-03T07:29:40.886Z,97274.64
2018-07-03T07:32:09.552Z,97279.55
2018-07-03T07:34:38.309Z,97274.59
2018-07-03T07:37:07.045Z,97283.27
2018-07-03T07:39:36.205Z,97282.44
2018-07-03T07:42:05.132Z,97286.77
2018-07-03T07:44:33.855Z,97281.63
2018-07-03T07:47:03.009Z,97287.36
2018-07-03T07:49:31.658Z,97283.62
2018-07-03T07:52:00.324Z,97283.87
2018-07-03T07:54:28.931Z,97291.05
2018-07-03T07:56:57.707Z,97293.62
2018-07-03T07:59:26.313Z,97296.52
2018-07-03T08:01:55.026Z,97302.52
2018-07-03T08:04:23.631Z,97303.34
2018-07-03T08:06:52.312Z,97298.88
2018-07-03T08:09:21.069Z,97304.45
2018-07-03T08:11:49.828Z,97299.17
2018-07-03T08:14:18.521Z,97292.03
2018-07-03T08:16:47.208Z,97299.67
2018-07-03T08:19:16.086Z,97302.77
2018-07-03T08:21:44.676Z,97302.51
2018-07-03T08:24:13.810Z,97302.19
2018-07-03T08:26:42.696Z,97297.34
2018-07-03T08:29:11.335Z,97296.41
2018-07-03T08:31:40.364Z,97297.88
2018-07-03T08:34:09.019Z,97304.30
2018-07-03T08:36:37.588Z,97295.24
2018-07-03T08:39:09.327Z,97294.45
2018-07-03T08:41:38.040Z,97298.41
2018-07-03T08:44:06.733Z,97297.30
2018-07-03T08:46:35.652Z,97308.67
2018-07-03T08:49:04.827Z,97310.97
2018-07-03T08:51:33.498Z,97310.86
2018-07-03T08:54:02.232Z,97313.97
2018-07-03T08:56:30.871Z,97326.55
2018-07-03T08:58:59.672Z,97319.61
2018-07-03T09:01:28.589Z,97319.83
2018-07-03T09:03:57.236Z,97321.59
2018-07-03T09:06:25.943Z,97321.05
2018-07-03T09:08:54.844Z,97315.11
2018-07-03T09:11:23.603Z,97316.23
2018-07-03T09:13:53.688Z,97320.77
2018-07-03T09:16:23.479Z,97324.67
2018-07-03T09:18:52.153Z,97317.20
2018-07-03T09:21:22.124Z,97325.76
2018-07-03T09:23:50.925Z,97321.23
2018-07-03T09:26:19.772Z,97322.88
2018-07-03T09:28:48.809Z,97320.96
2018-07-03T09:31:17.656Z,97319.53
2018-07-03T09:33:46.793Z,97317.09
2018-07-03T09:36:15.429Z,97319.63
2018-07-03T09:38:44.205Z,97320.72
2018-07-03T09:41:13.132Z,97327.31
2018-07-03T09:43:41.820Z,97320.93
2018-07-03T09:46:10.877Z,97326.25
2018-07-03T09:48:40.764Z,97326.17
2018-07-03T09:51:09.375Z,97323.80
2018-07-03T09:53:38.361Z,97326.70
2018-07-03T09:56:07.574Z,97326.58
2018-07-03T09:58:36.372Z,97335.16
2018-07-03T10:01:11.101Z,97336.27
2018-07-03T10:03:39.792Z,97337.23
2018-07-03T10:06:08.408Z,97337.03
2018-07-03T10:08:37.235Z,97340.16
2018-07-03T10:11:06.044Z,97335.57
2018-07-03T10:13:34.577Z,97345.30
2018-07-03T10:16:04.500Z,97346.50
2018-07-03T10:18:33.482Z,97334.26
2018-07-03T10:21:02.801Z,97347.19
2018-07-03T10:23:31.612Z,97337.69
2018-07-03T10:26:00.676Z,97336.84
2018-07-03T10:28:29.331Z,97331.70
2018-07-03T10:30:58.912Z,97332.27
2018-07-03T10:33:27.536Z,97327.79
2018-07-03T10:35:56.275Z,97328.55
2018-07-03T10:38:25.149Z,97323.72
2018-07-03T10:40:54.455Z,97315.75
2018-07-03T10:43:23.219Z,97319.05
2018-07-03T10:45:52.124Z,97316.97
2018-07-03T10:48:20.676Z,97322.23
2018-07-03T10:50:49.415Z,97312.42
2018-07-03T10:53:18.042Z,97312.20
2018-07-03T10:55:51.177Z,97311.64
2018-07-03T10:58:20.076Z,97309.03
2018-07-03T11:00:48.709Z,97302.03
2018-07-03T11:03:17.530Z,97299.81
2018-07-03T11:05:46.141Z,97295.81
2018-07-03T11:08:14.881Z,97296.58
2018-07-03T11:10:43.444Z,97299.56
2018-07-03T11:13:12.491Z,97297.66
2018-07-03T11:15:41.208Z,97293.13
2018-07-03T11:18:09.927Z,97290.39
2018-07-03T11:20:38.639Z,97298.25
2018-07-03T11:23:07.180Z,97299.22
2018-07-03T11:25:35.895Z,97294.77
2018-07-03T11:28:04.519Z,97300.30
2018-07-03T11:30:33.067Z,97297.59
2018-07-03T11:33:01.764Z,97294.00
2018-07-03T11:35:30.498Z,97300.36
2018-07-03T11:37:59.199Z,97301.09
2018-07-03T11:40:27.810Z,97291.94
2018-07-03T11:42:56.569Z,97295.23
2018-07-03T11:45:25.152Z,97297.50
2018-07-03T11:47:53.736Z,97300.84
2018-07-03T11:50:22.410Z,97294.54
2018-07-03T11:52:51.108Z,97286.99
2018-07-03T11:55:19.841Z,97291.77
2018-07-03T11:57:48.443Z,97272.58
2018-07-03T12:00:17.567Z,97278.84
2018-07-03T12:02:46.331Z,97277.31
2018-07-03T12:05:15.299Z,97277.28
2018-07-03T12:07:43.942Z,97267.84
2018-07-03T12:10:12.720Z,97275.89
2018-07-03T12:12:43.592Z,97268.12
2018-07-03T12:15:12.144Z,97269.05
2018-07-03T12:17:40.840Z,97266.69
2018-07-03T12:20:10.395Z,97269.08
2018-07-03T12:22:39.009Z,97264.98
2018-07-03T12:25:07.722Z,97266.97
2018-07-03T12:27:36.649Z,97264.56
2018-07-03T12:30:08.149Z,97259.00
2018-07-03T12:32:36.765Z,97260.44
2018-07-03T12:35:05.658Z,97266.19
2018-07-03T12:37:34.232Z,97265.33
2018-07-03T12:40:02.963Z,97264.13
2018-07-03T12:42:31.583Z,97258.38
2018-07-03T12:45:00.631Z,97258.31
2018-07-03T12:47:29.860Z,97256.72
2018-07-03T12:49:58.485Z,97258.80
2018-07-03T12:52:27.285Z,97253.52
2018-07-03T12:54:56.275Z,97252.59
2018-07-03T12:57:25.044Z,97251.66
2018-07-03T12:59:53.727Z,97249.86
2018-07-03T13:02:22.679Z,97250.98
2018-07-03T13:04:51.303Z,97248.33
2018-07-03T13:07:19.886Z,97251.48
2018-07-03T13:09:48.512Z,97246.48
2018-07-03T13:12:17.152Z,97245.06
2018-07-03T13:14:45.738Z,97245.66
2018-07-03T13:17:14.456Z,97243.77
2018-07-03T13:19:43.068Z,97242.12
2018-07-03T13:22:11.668Z,97242.94
2018-07-03T13:24:40.252Z,97242.03
2018-07-03T13:27:08.855Z,97235.57
2018-07-03T13:29:37.456Z,97237.98
2018-07-03T13:32:06.472Z,97231.44
2018-07-03T13:34:35.123Z,97231.84
2018-07-03T13:37:03.735Z,97228.70
2018-07-03T13:39:32.455Z,97234.75
2018-07-03T13:42:01.029Z,97237.41
2018-07-03T13:44:29.975Z,97228.13
2018-07-03T13:46:58.803Z,97228.02
2018-07-03T13:49:27.441Z,97223.84
2018-07-03T13:51:56.119Z,97226.24
2018-07-03T13:54:25.051Z,97226.11
2018-07-03T13:56:53.588Z,97224.42
2018-07-03T13:59:22.135Z,97231.76
2018-07-03T14:01:50.826Z,97228.45
2018-07-03T14:04:19.768Z,97229.97
2018-07-03T14:06:48.315Z,97225.95
2018-07-03T14:09:17.172Z,97222.78
2018-07-03T14:11:45.764Z,97222.88
2018-07-03T14:14:14.484Z,97216.93
2018-07-03T14:16:43.279Z,97220.00
2018-07-03T14:19:11.870Z,97223.73
2018-07-03T14:21:40.620Z,97223.08
2018-07-03T14:24:09.253Z,97221.11
2018-07-03T14:26:37.881Z,97220.72
2018-07-03T14:29:06.894Z,97216.95
2018-07-03T14:31:35.485Z,97217.23
2018-07-03T14:34:04.092Z,97212.34
2018-07-03T14:36:32.734Z,97211.59
2018-07-03T14:39:02.110Z,97220.42
2018-07-03T14:41:30.650Z,97219.49
2018-07-03T14:43:59.660Z,97213.34
2018-07-03T14:46:28.584Z,97214.45
2018-07-03T14:48:57.122Z,97211.37
2018-07-03T14:51:25.810Z,97210.75
2018-07-03T14:53:54.424Z,97210.94
2018-07-03T14:56:23.075Z,97211.51
2018-07-03T14:58:51.984Z,97211.39
2018-07-03T15:01:20.708Z,97211.46
2018-07-03T15:03:49.339Z,97214.24
2018-07-03T15:06:18.085Z,97203.87
2018-07-03T15:08:46.855Z,97205.74
2018-07-03T15:11:15.490Z,97209.38
2018-07-03T15:13:44.071Z,97197.92
2018-07-03T15:16:14.035Z,97201.31
2018-07-03T15:18:47.882Z,97201.03
2018-07-03T15:21:16.634Z,97198.61
2018-07-03T15:23:45.279Z,97189.84
2018-07-03T15:26:13.851Z,97192.79
2018-07-03T15:28:42.719Z,97191.03
2018-07-03T15:31:11.796Z,97191.46
2018-07-03T15:33:41.336Z,97188.11
2018-07-03T15:36:10.935Z,97184.55
2018-07-03T15:38:39.554Z,97188.72
2018-07-03T15:41:08.672Z,97194.22
2018-07-03T15:43:38.067Z,97187.50
2018-07-03T15:46:06.711Z,97185.52
2018-07-03T15:48:35.331Z,97184.77
2018-07-03T15:51:04.983Z,97185.52
2018-07-03T15:53:33.974Z,97182.78
2018-07-03T15:56:03.773Z,97176.12
2018-07-03T15:58:32.779Z,97181.91
2018-07-03T16:01:03.345Z,97184.31
2018-07-03T16:04:08.322Z,97182.36
2018-07-03T16:06:53.114Z,97184.58
2018-07-03T16:09:22.152Z,97175.69
2018-07-03T16:11:51.783Z,97184.44
2018-07-03T16:14:21.303Z,97188.58
2018-07-03T16:16:50.038Z,97186.06
2018-07-03T16:19:24.821Z,97181.33
2018-07-03T16:21:53.450Z,97183.40
2018-07-03T16:24:24.708Z,97188.37
2018-07-03T16:26:53.754Z,97184.30
2018-07-03T16:29:22.363Z,97187.97
2018-07-03T16:31:52.751Z,97184.37
2018-07-03T16:34:21.527Z,97180.98
2018-07-03T16:36:54.536Z,97185.33
2018-07-03T16:39:23.347Z,97187.45
2018-07-03T16:41:52.196Z,97185.19
2018-07-03T16:44:22.443Z,97182.77
2018-07-03T16:46:51.229Z,97183.98
2018-07-03T16:49:19.879Z,97189.51
2018-07-03T16:51:49.267Z,97195.72
2018-07-03T16:54:18.999Z,97188.86
2018-07-03T16:56:48.394Z,97193.96
2018-07-03T16:59:17.379Z,97189.13
2018-07-03T17:01:46.728Z,97197.47
2018-07-03T17:04:16.311Z,97195.09
2018-07-03T17:06:46.147Z,97187.74
2018-07-03T17:09:15.106Z,97187.03
2018-07-03T17:11:43.864Z,97180.37
2018-07-03T17:14:12.563Z,97188.28
2018-07-03T17:16:41.791Z,97193.02
2018-07-03T17:19:15.699Z,97182.98
2018-07-03T17:21:44.613Z,97194.59
2018-07-03T17:24:13.331Z,97190.41
2018-07-03T17:26:42.010Z,97196.03
2018-07-03T17:29:11.074Z,97187.92
2018-07-03T17:31:43.791Z,97189.44
2018-07-03T17:34:12.522Z,97195.28
2018-07-03T17:36:41.215Z,97190.22
2018-07-03T17:39:12.344Z,97192.48
2018-07-03T17:41:52.125Z,97197.64
2018-07-03T17:45:34.434Z,97194.10
2018-07-03T17:48:06.178Z,97186.52
2018-07-03T17:50:35.384Z,97194.42
2018-07-03T17:53:04.336Z,97190.99
2018-07-03T17:55:33.729Z,97193.61
2018-07-03T17:58:02.359Z,97185.83
2018-07-03T18:00:31.415Z,97186.50
2018-07-03T18:03:00.382Z,97190.69
2018-07-03T18:05:30.274Z,97189.02
2018-07-03T18:07:59.311Z,97188.56
2018-07-03T18:10:27.892Z,97191.52
2018-07-03T18:12:56.811Z,97184.77
2018-07-03T18:15:25.474Z,97190.34
2018-07-03T18:17:54.055Z,97185.94
2018-07-03T18:20:22.862Z,97182.16
2018-07-03T18:22:51.427Z,97187.59
2018-07-03T18:25:20.785Z,97188.66
2018-07-03T18:27:49.563Z,97191.33
2018-07-03T18:30:18.139Z,97192.26
2018-07-03T18:32:47.641Z,97191.19
2018-07-03T18:35:17.174Z,97189.99
2018-07-03T18:37:46.552Z,97197.55
2018-07-03T18:40:15.267Z,97193.20
2018-07-03T18:42:43.925Z,97192.55
2018-07-03T18:45:12.708Z,97197.48
2018-07-03T18:47:41.445Z,97192.34
2018-07-03T18:50:10.488Z,97198.80
2018-07-03T18:52:39.055Z,97197.69
2018-07-03T18:55:07.824Z,97199.55
2018-07-03T18:57:36.636Z,97191.77
2018-07-03T19:00:05.961Z,97199.62
2018-07-03T19:02:34.491Z,97198.82
2018-07-03T19:05:03.511Z,97198.73
2018-07-03T19:07:32.074Z,97193.55
2018-07-03T19:10:00.748Z,97196.34
2018-07-03T19:12:29.703Z,97193.41
2018-07-03T19:14:58.335Z,97201.11
2018-07-03T19:17:27.111Z,97203.08
2018-07-03T19:19:56.036Z,97202.77
2018-07-03T19:22:24.712Z,97204.41
2018-07-03T19:24:53.278Z,97200.68
2018-07-03T19:27:22.007Z,97206.82
2018-07-03T19:29:50.658Z,97204.73
2018-07-03T19:32:19.526Z,97206.03
2018-07-03T19:34:48.259Z,97209.75
2018-07-03T19:37:16.993Z,97209.59
2018-07-03T19:39:45.606Z,97204.06
2018-07-03T19:42:14.194Z,97208.30
2018-07-03T19:44:42.843Z,97204.52
2018-07-03T19:47:11.541Z,97206.64
2018-07-03T19:49:40.610Z,97204.50
2018-07-03T19:52:09.224Z,97202.84
2018-07-03T19:54:37.963Z,97206.71
2018-07-03T19:57:06.835Z,97201.66
2018-07-03T19:59:35.487Z,97203.91
2018-07-03T20:02:04.215Z,97208.58
2018-07-03T20:04:32.993Z,97205.96
2018-07-03T20:07:02.067Z,97206.44
2018-07-03T20:09:30.832Z,97217.73
2018-07-03T20:11:59.950Z,97219.73
2018-07-03T20:14:28.528Z,97221.11
2018-07-03T20:16:57.202Z,97219.41
2018-07-03T20:19:25.936Z,97213.84
2018-07-03T20:21:54.818Z,97212.07
2018-07-03T20:24:23.681Z,97215.69
2018-07-03T20:26:52.608Z,97219.02
2018-07-03T20:29:21.142Z,97214.95
2018-07-03T20:31:49.999Z,97220.67
2018-07-03T20:34:18.912Z,97221.48
2018-07-03T20:36:47.623Z,97224.21
2018-07-03T20:39:16.386Z,97220.48
2018-07-03T20:41:45.335Z,97222.73
2018-07-03T20:44:14.570Z,97218.08
2018-07-03T20:46:43.267Z,97220.06
2018-07-03T20:49:12.313Z,97221.98
2018-07-03T20:51:40.962Z,97220.88
2018-07-03T20:54:09.608Z,97229.22
2018-07-03T20:56:38.278Z,97228.63
2018-07-03T20:59:06.920Z,97226.98
2018-07-03T21:01:35.623Z,97222.86
2018-07-03T21:04:05.036Z,97226.80
2018-07-03T21:06:33.683Z,97220.03
2018-07-03T21:09:02.369Z,97217.02
2018-07-03T21:11:31.350Z,97212.27
2018-07-03T21:14:00.233Z,97212.79
2018-07-03T21:16:28.828Z,97211.42
2018-07-03T21:18:58.076Z,97215.65
2018-07-03T21:21:26.827Z,97217.89
2018-07-03T21:23:55.407Z,97218.34
2018-07-03T21:26:24.256Z,97220.34
2018-07-03T21:28:52.943Z,97210.99
2018-07-03T21:31:21.662Z,97209.70
2018-07-03T21:33:50.471Z,97206.92
2018-07-03T21:36:19.140Z,97205.91
2018-07-03T21:38:48.051Z,97201.19
2018-07-03T21:41:16.750Z,97207.44
2018-07-03T21:43:45.506Z,97201.41
2018-07-03T21:46:14.095Z,97205.11
2018-07-03T21:48:42.906Z,97209.41
2018-07-03T21:51:11.792Z,97214.55
2018-07-03T21:53:40.375Z,97225.45
2018-07-03T21:56:09.790Z,97230.30
2018-07-03T21:58:38.542Z,97236.55
2018-07-03T22:01:07.133Z,97241.30
2018-07-03T22:03:36.012Z,97246.30
2018-07-03T22:06:06.611Z,97245.37
2018-07-03T22:08:36.337Z,97248.98
2018-07-03T22:11:05.199Z,97250.08
2018-07-03T22:13:33.736Z,97244.00
2018-07-03T22:16:02.867Z,97251.62
2018-07-03T22:18:31.714Z,97248.84
2018-07-03T22:21:00.388Z,97251.59
2018-07-03T22:23:28.945Z,97250.25
2018-07-03T22:25:57.561Z,97253.30
2018-07-03T22:28:26.162Z,97254.88
2018-07-03T22:30:54.851Z,97257.17
2018-07-03T22:33:23.512Z,97251.17
2018-07-03T22:35:52.231Z,97251.67
2018-07-03T22:38:20.834Z,97252.81
2018-07-03T22:40:50.237Z,97257.49
2018-07-03T22:43:18.919Z,97252.80
2018-07-03T22:45:47.647Z,97255.23
2018-07-03T22:48:16.415Z,97263.48
2018-07-03T22:50:49.070Z,97266.70
2018-07-03T22:53:18.018Z,97268.84
2018-07-03T22:55:46.710Z,97278.34
2018-07-03T22:58:15.544Z,97282.22
2018-07-03T23:00:44.358Z,97280.16
2018-07-03T23:03:13.077Z,97275.87
2018-07-03T23:05:41.694Z,97288.59
2018-07-03T23:08:10.348Z,97288.64
2018-07-03T23:10:39.473Z,97288.02
2018-07-03T23:13:08.398Z,97282.25
2018-07-03T23:15:37.180Z,97288.76
2018-07-03T23:18:06.110Z,97284.05
2018-07-03T23:20:36.091Z,97279.48
2018-07-03T23:23:06.505Z,97286.41
2018-07-03T23:25:35.236Z,97281.58
2018-07-03T23:28:03.947Z,97278.75
2018-07-03T23:30:32.507Z,97274.82
2018-07-03T23:33:01.557Z,97272.61
2018-07-03T23:35:31.097Z,97280.20
2018-07-03T23:40:32.238Z,97280.77
2018-07-03T23:43:01.594Z,97276.78
2018-07-03T23:45:40.963Z,97279.17
2018-07-03T23:48:20.799Z,97284.83
2018-07-03T23:51:00.849Z,97281.64
2018-07-03T23:53:40.783Z,97288.72
2018-07-03T23:56:20.651Z,97285.72
2018-07-03T23:59:00.433Z,97281.23
